createdAt,value
2017-11-24T00:00:55.083Z,56.74
2017-11-24T00:03:26.810Z,56.74
2017-11-24T00:05:58.198Z,56.86
2017-11-24T00:08:30.430Z,57.01
2017-11-24T00:11:02.442Z,57.54
2017-11-24T00:13:34.773Z,58.01
2017-11-24T00:16:08.150Z,58.42
2017-11-24T00:18:48.253Z,58.87
2017-11-24T00:21:24.708Z,59.33
2017-11-24T00:23:57.171Z,59.38
2017-11-24T00:26:30.094Z,59.69
2017-11-24T00:29:01.664Z,60.04
2017-11-24T00:31:33.884Z,60.34
2017-11-24T00:34:10.088Z,60.53
2017-11-24T00:36:45.978Z,60.78
2017-11-24T00:39:19.011Z,60.68
2017-11-24T00:41:50.717Z,60.70
2017-11-24T00:44:22.235Z,60.62
2017-11-24T00:46:53.660Z,60.77
2017-11-24T00:49:25.321Z,60.86
2017-11-24T00:51:56.793Z,60.73
2017-11-24T00:54:28.140Z,60.73
2017-11-24T00:57:01.210Z,60.91
2017-11-24T00:59:32.610Z,61.05
2017-11-24T01:02:05.621Z,61.10
2017-11-24T01:04:37.546Z,61.19
2017-11-24T01:07:08.933Z,61.17
2017-11-24T01:09:40.285Z,61.53
2017-11-24T01:12:13.038Z,61.65
2017-11-24T01:14:44.345Z,61.51
2017-11-24T01:17:15.913Z,61.45
2017-11-24T01:19:47.523Z,61.36
2017-11-24T01:22:18.929Z,61.22
2017-11-24T01:24:50.307Z,61.00
2017-11-24T01:27:21.912Z,61.07
2017-11-24T01:29:53.225Z,61.08
2017-11-24T01:32:24.764Z,61.47
2017-11-24T01:34:56.089Z,61.58
2017-11-24T01:37:27.757Z,61.58
2017-11-24T01:39:59.151Z,61.58
2017-11-24T01:42:31.091Z,61.58
2017-11-24T01:45:02.757Z,61.44
2017-11-24T01:47:34.146Z,61.32
2017-11-24T01:50:06.480Z,61.17
2017-11-24T01:55:25.942Z,61.35
2017-11-24T01:57:57.286Z,61.65
2017-11-24T02:00:28.999Z,61.51
2017-11-24T02:03:00.403Z,61.47
2017-11-24T02:05:31.752Z,61.76
2017-11-24T02:08:04.301Z,61.69
2017-11-24T02:10:35.620Z,61.48
2017-11-24T02:13:07.140Z,61.51
2017-11-24T02:15:39.360Z,61.50
2017-11-24T02:18:10.967Z,61.65
2017-11-24T02:20:42.369Z,61.84
2017-11-24T02:23:14.261Z,62.11
2017-11-24T02:25:45.691Z,62.23
2017-11-24T02:28:18.035Z,62.10
2017-11-24T02:30:49.435Z,61.39
2017-11-24T02:33:21.126Z,60.91
2017-11-24T02:35:52.527Z,60.54
2017-11-24T02:38:23.974Z,60.41
2017-11-24T02:40:55.630Z,60.45
2017-11-24T02:43:27.055Z,60.51
2017-11-24T02:45:58.476Z,60.33
2017-11-24T02:48:30.256Z,60.26
2017-11-24T02:51:01.914Z,60.07
2017-11-24T02:53:33.777Z,59.96
2017-11-24T02:56:06.436Z,59.67
2017-11-24T02:58:37.780Z,59.61
2017-11-24T03:01:09.294Z,59.53
2017-11-24T03:03:40.684Z,59.52
2017-11-24T03:06:14.599Z,59.72
2017-11-24T03:08:45.940Z,59.71
2017-11-24T03:11:17.266Z,59.73
2017-11-24T03:13:48.586Z,59.72
2017-11-24T03:16:20.720Z,59.80
2017-11-24T03:18:52.150Z,59.80
2017-11-24T03:21:24.872Z,59.97
2017-11-24T03:23:56.217Z,60.29
2017-11-24T03:26:27.716Z,60.42
2017-11-24T03:29:03.666Z,60.72
2017-11-24T03:31:35.035Z,60.86
2017-11-24T03:34:07.015Z,60.87
2017-11-24T03:36:38.704Z,60.91
2017-11-24T03:39:10.357Z,61.40
2017-11-24T03:41:41.773Z,61.36
2017-11-24T03:44:14.814Z,61.47
2017-11-24T03:46:46.200Z,61.63
2017-11-24T03:49:18.079Z,61.79
2017-11-24T03:51:54.467Z,61.85
2017-11-24T03:54:25.857Z,61.83
2017-11-24T03:56:57.259Z,61.79
2017-11-24T03:59:28.595Z,61.86
2017-11-24T04:01:59.953Z,61.74
2017-11-24T04:04:31.378Z,61.78
2017-11-24T04:07:03.449Z,61.65
2017-11-24T04:09:34.847Z,61.48
2017-11-24T04:12:07.810Z,61.24
2017-11-24T04:14:39.337Z,61.18
2017-11-24T04:17:11.336Z,61.09
2017-11-24T04:19:42.823Z,61.07
2017-11-24T04:22:14.725Z,60.98
2017-11-24T04:24:46.108Z,61.03
2017-11-24T04:27:17.498Z,61.17
2017-11-24T04:29:48.966Z,61.04
2017-11-24T04:32:20.355Z,61.08
2017-11-24T04:34:51.709Z,61.25
2017-11-24T04:37:23.555Z,61.22
2017-11-24T04:39:54.926Z,61.36
2017-11-24T04:42:26.358Z,61.57
2017-11-24T04:44:57.800Z,61.74
2017-11-24T04:47:29.313Z,61.90
2017-11-24T04:50:00.675Z,61.71
2017-11-24T04:52:32.464Z,61.79
2017-11-24T04:55:04.516Z,61.73
2017-11-24T04:57:35.917Z,61.72
2017-11-24T05:00:08.172Z,61.67
2017-11-24T05:02:39.557Z,61.58
2017-11-24T05:05:11.564Z,61.74
2017-11-24T05:07:43.192Z,61.97
2017-11-24T05:10:14.729Z,61.98
2017-11-24T05:12:46.140Z,61.87
2017-11-24T05:15:17.816Z,61.91
2017-11-24T05:17:49.208Z,61.94
2017-11-24T05:20:20.784Z,61.86
2017-11-24T05:22:52.437Z,61.98
2017-11-24T05:25:24.701Z,61.95
2017-11-24T05:27:56.153Z,61.94
2017-11-24T05:30:27.537Z,61.92
2017-11-24T05:32:58.930Z,62.01
2017-11-24T05:35:30.575Z,62.09
2017-11-24T05:38:03.924Z,62.34
2017-11-24T05:40:36.574Z,62.39
2017-11-24T05:43:08.115Z,62.46
2017-11-24T05:45:39.536Z,62.46
2017-11-24T05:48:11.478Z,62.41
2017-11-24T05:50:42.898Z,62.26
2017-11-24T05:53:14.629Z,62.19
2017-11-24T05:55:46.008Z,62.10
2017-11-24T05:58:17.609Z,62.09
2017-11-24T06:00:49.008Z,61.81
2017-11-24T06:03:20.521Z,61.85
2017-11-24T06:05:52.041Z,61.58
2017-11-24T06:08:23.786Z,61.45
2017-11-24T06:10:56.201Z,61.42
2017-11-24T06:13:28.377Z,61.34
2017-11-24T06:15:59.762Z,61.36
2017-11-24T06:21:25.667Z,61.66
2017-11-24T06:23:57.408Z,61.71
2017-11-24T06:26:29.540Z,61.76
2017-11-24T06:29:01.102Z,61.72
2017-11-24T06:31:33.223Z,61.57
2017-11-24T06:34:06.650Z,61.64
2017-11-24T06:36:38.613Z,61.37
2017-11-24T06:39:10.376Z,61.43
2017-11-24T06:41:41.804Z,61.44
2017-11-24T06:44:14.739Z,61.48
2017-11-24T06:46:49.884Z,61.34
2017-11-24T06:49:21.238Z,61.27
2017-11-24T06:51:53.658Z,61.25
2017-11-24T06:54:29.975Z,61.20
2017-11-24T06:57:02.527Z,60.98
2017-11-24T06:59:34.076Z,60.89
2017-11-24T07:02:12.481Z,61.08
2017-11-24T07:04:44.229Z,60.99
2017-11-24T07:07:16.336Z,60.95
2017-11-24T07:09:48.120Z,61.00
2017-11-24T07:12:22.081Z,61.01
2017-11-24T07:14:53.529Z,60.95
2017-11-24T07:17:25.585Z,60.98
2017-11-24T07:19:57.222Z,61.11
2017-11-24T07:22:28.680Z,60.99
2017-11-24T07:25:00.074Z,60.81
2017-11-24T07:27:31.777Z,60.67
2017-11-24T07:30:05.785Z,60.18
2017-11-24T07:32:37.165Z,59.00
2017-11-24T07:35:16.452Z,58.75
2017-11-24T07:37:47.850Z,58.17
2017-11-24T07:40:20.179Z,58.48
2017-11-24T07:42:51.819Z,58.98
2017-11-24T07:45:23.333Z,59.08
2017-11-24T07:47:54.720Z,59.20
2017-11-24T07:50:26.810Z,59.16
2017-11-24T07:53:07.547Z,58.96
2017-11-24T07:55:39.458Z,59.43
2017-11-24T07:58:11.895Z,59.13
2017-11-24T08:00:43.275Z,59.15
2017-11-24T08:03:14.641Z,58.49
2017-11-24T08:08:18.432Z,58.67
2017-11-24T08:10:49.900Z,58.75
2017-11-24T08:15:50.030Z,59.00
2017-11-24T08:18:22.500Z,58.33
2017-11-24T08:20:54.042Z,58.56
2017-11-24T08:23:26.783Z,58.11
2017-11-24T08:25:58.331Z,57.93
2017-11-24T08:28:30.880Z,57.59
2017-11-24T08:31:02.846Z,57.48
2017-11-24T08:33:36.143Z,57.47
2017-11-24T08:36:07.540Z,57.33
2017-11-24T08:38:38.961Z,56.61
2017-11-24T08:41:10.736Z,56.03
2017-11-24T08:43:42.455Z,55.84
2017-11-24T08:46:18.181Z,56.29
2017-11-24T08:49:57.414Z,56.03
2017-11-24T08:52:28.849Z,55.05
2017-11-24T08:55:00.709Z,55.66
2017-11-24T08:57:32.374Z,54.92
2017-11-24T09:00:05.270Z,53.81
2017-11-24T09:02:37.198Z,55.19
2017-11-24T09:05:08.686Z,54.88
2017-11-24T09:07:40.429Z,54.22
2017-11-24T09:10:18.342Z,54.01
2017-11-24T09:12:50.469Z,53.86
2017-11-24T09:15:23.275Z,53.08
2017-11-24T09:17:54.714Z,53.40
2017-11-24T09:20:26.441Z,53.65
2017-11-24T09:22:58.328Z,53.69
2017-11-24T09:25:29.731Z,54.00
2017-11-24T09:28:01.176Z,53.33
2017-11-24T09:30:32.886Z,53.07
2017-11-24T09:33:05.722Z,53.42
2017-11-24T09:35:37.173Z,53.90
2017-11-24T09:38:09.595Z,54.60
2017-11-24T09:40:41.014Z,54.63
2017-11-24T09:43:13.033Z,54.30
2017-11-24T09:45:44.844Z,54.55
2017-11-24T09:48:16.215Z,55.43
2017-11-24T09:50:47.878Z,56.64
2017-11-24T09:53:20.600Z,56.83
2017-11-24T09:55:52.864Z,57.20
2017-11-24T09:58:26.141Z,56.67
2017-11-24T10:00:57.715Z,55.96
2017-11-24T10:03:29.436Z,56.00
2017-11-24T10:06:00.799Z,55.27
2017-11-24T10:08:32.647Z,55.61
2017-11-24T10:11:04.316Z,55.38
2017-11-24T10:13:35.746Z,54.51
2017-11-24T10:16:08.217Z,53.96
2017-11-24T10:18:39.664Z,53.60
2017-11-24T10:21:18.271Z,55.27
2017-11-24T10:23:49.645Z,55.43
2017-11-24T10:26:21.086Z,55.04
2017-11-24T10:28:52.777Z,54.83
2017-11-24T10:31:24.284Z,53.92
2017-11-24T10:33:55.918Z,53.79
2017-11-24T10:36:27.326Z,53.76
2017-11-24T10:38:59.008Z,53.74
2017-11-24T10:41:30.679Z,53.28
2017-11-24T10:44:03.966Z,53.14
2017-11-24T10:46:35.346Z,52.59
2017-11-24T10:49:06.780Z,51.97
2017-11-24T10:51:38.546Z,51.92
2017-11-24T10:54:10.016Z,53.12
2017-11-24T10:56:41.739Z,52.66
2017-11-24T10:59:13.996Z,52.68
2017-11-24T11:01:45.480Z,52.71
2017-11-24T11:04:16.841Z,52.94
2017-11-24T11:06:48.739Z,52.15
2017-11-24T11:09:20.200Z,52.72
2017-11-24T11:11:51.746Z,52.91
2017-11-24T11:14:23.846Z,53.71
2017-11-24T11:16:55.406Z,54.62
2017-11-24T11:19:27.018Z,55.22
2017-11-24T11:21:58.604Z,56.67
2017-11-24T11:24:30.427Z,57.29
2017-11-24T11:27:02.921Z,58.19
2017-11-24T11:29:34.280Z,58.13
2017-11-24T11:32:06.493Z,58.41
2017-11-24T11:34:38.338Z,58.14
2017-11-24T11:37:11.156Z,57.72
2017-11-24T11:39:42.913Z,58.10
2017-11-24T11:42:14.480Z,58.81
2017-11-24T11:44:50.039Z,58.89
2017-11-24T11:47:22.006Z,59.26
2017-11-24T11:49:53.576Z,59.75
2017-11-24T11:52:25.042Z,60.11
2017-11-24T11:54:56.701Z,60.09
2017-11-24T11:57:28.251Z,60.42
2017-11-24T12:00:00.219Z,59.91
2017-11-24T12:02:31.999Z,59.12
2017-11-24T12:05:05.243Z,60.42
2017-11-24T12:07:36.697Z,61.37
2017-11-24T12:10:08.254Z,62.04
2017-11-24T12:12:40.061Z,62.14
2017-11-24T12:15:11.703Z,62.05
2017-11-24T12:17:43.597Z,61.74
2017-11-24T12:20:15.784Z,61.87
2017-11-24T12:25:30.858Z,61.26
2017-11-24T12:28:03.668Z,61.08
2017-11-24T12:30:35.086Z,61.29
2017-11-24T12:33:07.059Z,61.02
2017-11-24T12:35:38.398Z,61.11
2017-11-24T12:38:09.722Z,60.98
2017-11-24T12:40:41.528Z,60.79
2017-11-24T12:43:13.162Z,61.02
2017-11-24T12:45:44.502Z,60.98
2017-11-24T12:48:16.529Z,61.10
2017-11-24T12:50:47.932Z,61.20
2017-11-24T12:53:20.319Z,61.15
2017-11-24T12:55:51.684Z,61.35
2017-11-24T12:58:23.217Z,61.76
2017-11-24T13:00:54.707Z,61.83
2017-11-24T13:03:26.064Z,61.74
2017-11-24T13:05:57.736Z,61.85
2017-11-24T13:08:29.111Z,62.19
2017-11-24T13:11:00.873Z,61.93
2017-11-24T13:13:32.332Z,62.35
2017-11-24T13:16:06.946Z,62.42
2017-11-24T13:18:38.655Z,62.99
2017-11-24T13:21:10.058Z,63.38
2017-11-24T13:23:42.218Z,63.29
2017-11-24T13:26:14.153Z,63.30
2017-11-24T13:28:45.526Z,63.47
2017-11-24T13:31:16.928Z,63.67
2017-11-24T13:33:48.588Z,63.95
2017-11-24T13:36:19.955Z,63.97
2017-11-24T13:38:51.364Z,64.41
2017-11-24T13:41:23.174Z,64.73
2017-11-24T13:43:55.251Z,65.13
2017-11-24T13:46:28.895Z,65.26
2017-11-24T13:49:01.038Z,65.32
2017-11-24T13:51:32.465Z,65.55
2017-11-24T13:54:05.214Z,65.57
2017-11-24T13:56:36.608Z,65.75
2017-11-24T13:59:08.197Z,65.66
2017-11-24T14:01:40.173Z,65.50
2017-11-24T14:04:11.945Z,65.48
2017-11-24T14:06:43.846Z,65.66
2017-11-24T14:09:20.901Z,65.55
2017-11-24T14:11:52.283Z,65.46
2017-11-24T14:14:25.682Z,65.60
2017-11-24T14:16:57.432Z,65.72
2017-11-24T14:19:30.081Z,65.74
2017-11-24T14:22:02.337Z,65.90
2017-11-24T14:27:04.660Z,66.09
2017-11-24T14:29:36.063Z,66.29
2017-11-24T14:32:08.231Z,66.77
2017-11-24T14:34:39.657Z,67.12
2017-11-24T14:37:26.194Z,67.47
2017-11-24T14:40:05.810Z,67.91
2017-11-24T14:42:37.200Z,68.07
2017-11-24T14:45:08.855Z,68.05
2017-11-24T14:47:40.195Z,68.12
2017-11-24T14:50:11.787Z,68.62
2017-11-24T14:52:43.137Z,68.98
2017-11-24T14:55:15.027Z,69.13
2017-11-24T14:57:46.693Z,69.57
2017-11-24T15:00:18.797Z,70.08
2017-11-24T15:02:50.193Z,70.79
2017-11-24T15:05:21.919Z,70.74
2017-11-24T15:07:53.273Z,70.95
2017-11-24T15:10:24.615Z,71.33
2017-11-24T15:12:58.514Z,71.29
2017-11-24T15:15:29.858Z,71.59
2017-11-24T15:18:03.395Z,72.18
2017-11-24T15:20:35.009Z,72.96
2017-11-24T15:23:06.395Z,73.12
2017-11-24T15:25:38.077Z,73.40
2017-11-24T15:28:09.831Z,73.35
2017-11-24T15:30:41.202Z,73.70
2017-11-24T15:33:12.822Z,73.61
2017-11-24T15:35:44.731Z,73.74
2017-11-24T15:38:16.111Z,73.73
2017-11-24T15:40:48.115Z,73.64
2017-11-24T15:43:19.747Z,73.73
2017-11-24T15:45:51.592Z,73.73
2017-11-24T15:48:22.952Z,73.74
2017-11-24T15:50:54.324Z,73.35
2017-11-24T15:53:30.142Z,73.60
2017-11-24T15:56:02.594Z,74.07
2017-11-24T15:58:33.948Z,74.08
2017-11-24T16:01:05.742Z,74.59
2017-11-24T16:03:37.119Z,75.07
2017-11-24T16:06:08.772Z,75.27
2017-11-24T16:08:40.109Z,75.28
2017-11-24T16:11:11.698Z,75.43
2017-11-24T16:13:44.194Z,75.99
2017-11-24T16:16:15.572Z,75.86
2017-11-24T16:21:36.912Z,76.57
2017-11-24T16:24:08.241Z,76.72
2017-11-24T16:26:39.863Z,77.20
2017-11-24T16:29:11.522Z,77.03
2017-11-24T16:31:42.984Z,76.62
2017-11-24T16:34:14.784Z,76.88
2017-11-24T16:36:46.173Z,76.70
2017-11-24T16:39:17.518Z,76.65
2017-11-24T16:44:43.845Z,76.54
2017-11-24T16:47:15.508Z,76.23
2017-11-24T16:49:46.836Z,76.24
2017-11-24T16:52:30.046Z,76.32
2017-11-24T16:55:05.711Z,76.22
2017-11-24T16:57:39.480Z,75.98
2017-11-24T17:00:30.272Z,75.83
2017-11-24T17:03:02.446Z,75.53
2017-11-24T17:05:34.721Z,75.50
2017-11-24T17:08:06.976Z,75.13
2017-11-24T17:10:38.734Z,75.28
2017-11-24T17:13:10.196Z,75.32
2017-11-24T17:15:41.762Z,75.15
2017-11-24T17:18:13.478Z,75.28
2017-11-24T17:20:45.109Z,75.26
2017-11-24T17:23:16.430Z,75.28
2017-11-24T17:25:47.979Z,75.24
2017-11-24T17:28:19.632Z,75.18
2017-11-24T17:30:51.103Z,75.15
2017-11-24T17:33:23.087Z,75.15
2017-11-24T17:35:54.855Z,74.93
2017-11-24T17:38:26.560Z,75.03
2017-11-24T17:40:58.255Z,74.88
2017-11-24T17:43:29.616Z,74.88
2017-11-24T17:46:01.847Z,74.89
2017-11-24T17:48:34.629Z,74.76
2017-11-24T17:51:06.693Z,74.91
2017-11-24T17:53:38.710Z,74.70
2017-11-24T17:56:11.069Z,74.76
2017-11-24T17:58:45.293Z,74.98
2017-11-24T18:01:16.783Z,75.44
2017-11-24T18:03:48.534Z,75.39
2017-11-24T18:06:20.173Z,75.28
2017-11-24T18:08:51.916Z,75.50
2017-11-24T18:11:23.435Z,75.48
2017-11-24T18:13:54.832Z,75.46
2017-11-24T18:16:26.943Z,75.74
2017-11-24T18:18:58.688Z,75.85
2017-11-24T18:21:30.366Z,75.97
2017-11-24T18:24:03.135Z,76.22
2017-11-24T18:26:34.845Z,76.00
2017-11-24T18:29:17.065Z,76.25
2017-11-24T18:31:48.671Z,76.51
2017-11-24T18:34:20.403Z,76.97
2017-11-24T18:36:52.408Z,76.77
2017-11-24T18:39:24.657Z,76.37
2017-11-24T18:41:56.238Z,76.71
2017-11-24T18:44:27.628Z,77.01
2017-11-24T18:47:00.040Z,77.13
2017-11-24T18:49:31.615Z,77.53
2017-11-24T18:52:04.992Z,77.24
2017-11-24T18:54:36.409Z,77.41
2017-11-24T18:57:08.285Z,77.72
2017-11-24T18:59:40.288Z,77.65
2017-11-24T19:02:13.322Z,77.79
2017-11-24T19:04:45.153Z,77.71
2017-11-24T19:07:16.894Z,78.32
2017-11-24T19:09:49.526Z,78.47
2017-11-24T19:12:22.210Z,78.68
2017-11-24T19:14:53.846Z,78.84
2017-11-24T19:17:28.725Z,79.06
2017-11-24T19:20:03.542Z,79.10
2017-11-24T19:22:34.919Z,78.98
2017-11-24T19:25:06.624Z,79.02
2017-11-24T19:27:39.209Z,79.42
2017-11-24T19:30:10.714Z,79.41
2017-11-24T19:32:42.724Z,79.33
2017-11-24T19:35:14.546Z,79.19
2017-11-24T19:37:46.102Z,79.12
2017-11-24T19:40:17.775Z,79.00
2017-11-24T19:42:49.360Z,79.06
2017-11-24T19:45:21.336Z,79.08
2017-11-24T19:50:22.225Z,79.65
2017-11-24T19:52:53.170Z,79.44
2017-11-24T19:55:24.549Z,79.37
2017-11-24T19:57:55.903Z,79.21
2017-11-24T20:00:30.233Z,79.39
2017-11-24T20:03:01.784Z,79.03
2017-11-24T20:05:33.296Z,78.99
2017-11-24T20:08:07.246Z,78.92
2017-11-24T20:10:39.950Z,78.97
2017-11-24T20:13:12.097Z,79.32
2017-11-24T20:15:43.448Z,79.61
2017-11-24T20:18:16.117Z,79.71
2017-11-24T20:20:47.862Z,79.31
2017-11-24T20:23:20.124Z,79.84
2017-11-24T20:25:51.812Z,79.77
2017-11-24T20:28:23.839Z,79.82
2017-11-24T20:30:55.164Z,79.84
2017-11-24T20:33:26.863Z,79.76
2017-11-24T20:35:58.251Z,79.94
2017-11-24T20:38:29.590Z,80.56
2017-11-24T20:41:06.454Z,81.19
2017-11-24T20:43:40.726Z,81.23
2017-11-24T20:46:13.990Z,81.15
2017-11-24T20:48:45.811Z,81.43
2017-11-24T20:51:17.575Z,81.76
2017-11-24T20:53:48.927Z,82.21
2017-11-24T20:56:20.332Z,82.11
2017-11-24T20:58:52.054Z,82.34
2017-11-24T21:01:25.149Z,82.63
2017-11-24T21:03:57.398Z,82.75
2017-11-24T21:06:29.231Z,82.63
2017-11-24T21:09:01.884Z,82.96
2017-11-24T21:11:37.807Z,82.81
2017-11-24T21:14:10.194Z,82.52
2017-11-24T21:16:44.040Z,82.28
2017-11-24T21:19:16.444Z,82.47
2017-11-24T21:21:51.654Z,82.19
2017-11-24T21:24:25.678Z,82.34
2017-11-24T21:26:57.149Z,82.30
2017-11-24T21:29:28.962Z,82.20
2017-11-24T21:32:00.538Z,82.07
2017-11-24T21:34:33.194Z,82.16
2017-11-24T21:37:06.043Z,82.30
2017-11-24T21:39:37.388Z,82.12
2017-11-24T21:42:09.360Z,82.11
2017-11-24T21:44:40.728Z,81.84
2017-11-24T21:47:12.324Z,81.71
2017-11-24T21:49:43.652Z,81.62
2017-11-24T21:52:15.580Z,81.51
2017-11-24T21:54:47.480Z,81.58
2017-11-24T21:57:18.869Z,82.03
2017-11-24T21:59:50.495Z,82.06
2017-11-24T22:02:21.848Z,81.83
2017-11-24T22:04:53.173Z,82.25
2017-11-24T22:07:27.208Z,82.11
2017-11-24T22:09:58.619Z,81.88
2017-11-24T22:12:30.059Z,82.01
2017-11-24T22:15:01.665Z,82.00
2017-11-24T22:17:32.987Z,82.22
2017-11-24T22:20:05.207Z,82.15
2017-11-24T22:22:36.625Z,82.06
2017-11-24T22:25:08.277Z,82.12
2017-11-24T22:27:40.296Z,82.17
2017-11-24T22:30:12.007Z,82.14
2017-11-24T22:32:44.292Z,82.11
2017-11-24T22:35:16.020Z,82.06
2017-11-24T22:37:47.575Z,82.12
2017-11-24T22:40:20.801Z,82.27
2017-11-24T22:42:52.896Z,82.46
2017-11-24T22:45:24.623Z,82.56
2017-11-24T22:47:56.427Z,82.82
2017-11-24T22:50:27.921Z,83.13
2017-11-24T22:52:59.353Z,83.69
2017-11-24T22:55:31.194Z,83.33
2017-11-24T22:58:03.782Z,82.80
2017-11-24T23:00:35.163Z,82.75
2017-11-24T23:03:06.785Z,82.74
2017-11-24T23:05:38.148Z,82.52
2017-11-24T23:08:09.689Z,82.59
2017-11-24T23:10:41.364Z,82.44
2017-11-24T23:13:12.966Z,82.40
2017-11-24T23:15:44.571Z,82.29
2017-11-24T23:18:17.822Z,82.46
2017-11-24T23:20:49.552Z,82.35
2017-11-24T23:23:22.971Z,82.39
2017-11-24T23:25:54.291Z,82.30
2017-11-24T23:28:25.593Z,82.50
2017-11-24T23:30:57.390Z,82.28
2017-11-24T23:33:28.880Z,82.19
2017-11-24T23:36:00.618Z,82.25
2017-11-24T23:38:32.202Z,82.32
2017-11-24T23:41:03.982Z,82.28
2017-11-24T23:43:35.604Z,82.16
2017-11-24T23:46:08.465Z,82.38
2017-11-24T23:48:39.838Z,82.55
2017-11-24T23:51:11.279Z,82.97
2017-11-24T23:53:42.656Z,83.38
2017-11-24T23:56:15.724Z,83.04
2017-11-24T23:58:47.084Z,82.93
